Aniak, Alaska
Current Conditions -  °F | °C
As of 1:36 PM on Monday 22 Dec 2014 (Local Time) from PANI Reporting Station
Overcast Overcast  
Wind Chill:   Ceiling: 3300
Heat Index:   Visibility: 10mi
Dew Point:   Wind: 0mph
Humidity: 92%   Direction: NA
Pressure: 29.95"   Gusts: NA
Location:  61.58°N, 159.54°W
Report Text: PANI 222236Z AUTO 00000KT 10SM OVC033 M15/M16 A2995 RMK AO1
Loading
Personal Weather Stations






























Interactive Weather Map New forecast layout! Learn more

10-Day Weather Forecast

Advertisements
Track Severe Weather on mobile